Time;durP1;ratioP1;P1;durP2;ratioP2;P2;SDS_P1;SDS_P2;PMS_P1;PMS_P2;Temp;Humidity;BMP_temperature;BMP_pressure;BME280_temperature;BME280_humidity;BME280_pressure;Samples;Min_cycle;Max_cycle;Signal;HPM_P1;HPM_P2
2022/01/20 00:02:01;;;;;;;12.85;2.65;;;22.50;99.90;;;;;;5034563;28;20218;-81
2022/01/20 00:04:42;;;;;;;8.35;1.65;;;22.40;99.90;;;;;;5034993;28;20336;-80
2022/01/20 00:26:48;;;;;;;11.10;1.63;;;21.30;99.90;;;;;;5025423;28;20281;-81
2022/01/20 00:29:29;;;;;;;10.65;1.85;;;21.40;99.90;;;;;;5034298;28;20213;-81
2022/01/20 00:32:09;;;;;;;15.35;2.47;;;21.50;99.90;;;;;;5034460;28;20198;-81
2022/01/20 00:37:28;;;;;;;17.60;2.47;;;21.40;99.90;;;;;;5026934;28;20288;-82
2022/01/20 00:40:00;;;;;;;13.10;2.13;;;21.30;99.90;;;;;;5033952;28;20194;-84
2022/01/20 00:42:31;;;;;;;15.48;2.38;;;21.10;99.90;;;;;;5032550;28;20230;-82
2022/01/20 00:45:03;;;;;;;15.55;2.85;;;21.00;99.90;;;;;;5033845;28;20198;-84
2022/01/20 00:47:34;;;;;;;17.27;2.72;;;20.90;99.90;;;;;;5033967;28;20190;-83
2022/01/20 00:50:05;;;;;;;14.27;3.03;;;20.80;99.90;;;;;;5033894;28;20244;-83
2022/01/20 00:52:35;;;;;;;12.88;2.85;;;20.80;99.90;;;;;;5038809;28;20190;-83
2022/01/20 00:55:07;;;;;;;18.27;2.72;;;20.80;99.90;;;;;;5028515;28;20654;-83
2022/01/20 00:57:41;;;;;;;15.30;2.65;;;20.80;99.90;;;;;;5032364;28;20191;-83
2022/01/20 01:00:16;;;;;;;13.60;2.28;;;20.80;99.90;;;;;;5032880;28;20549;-82
2022/01/20 01:02:47;;;;;;;14.65;2.92;;;20.80;99.90;;;;;;5032611;28;20661;-82
2022/01/20 01:05:17;;;;;;;18.23;3.10;;;20.70;99.90;;;;;;5032904;28;20620;-82
2022/01/20 01:07:50;;;;;;;15.27;2.60;;;20.70;99.90;;;;;;5025708;28;20198;-82
2022/01/20 01:10:22;;;;;;;16.23;2.20;;;20.60;99.90;;;;;;5027387;28;20194;-85
2022/01/20 01:12:57;;;;;;;16.83;2.65;;;20.50;99.90;;;;;;5033773;28;20195;-82
2022/01/20 01:15:35;;;;;;;16.48;2.97;;;20.40;99.90;;;;;;5033392;28;20666;-81
2022/01/20 01:21:13;;;;;;;16.25;2.35;;;20.50;99.90;;;;;;5031527;28;20229;-81
2022/01/20 01:23:47;;;;;;;21.83;2.97;;;20.50;99.90;;;;;;5031643;28;20605;-82
2022/01/20 01:26:20;;;;;;;16.60;2.63;;;20.70;99.90;;;;;;5025581;28;20228;-83
2022/01/20 01:28:51;;;;;;;14.43;2.65;;;20.80;99.90;;;;;;5032219;28;20662;-85
2022/01/20 01:31:36;;;;;;;14.40;2.20;;;20.90;99.90;;;;;;5027220;28;20248;-80
2022/01/20 01:34:10;;;;;;;12.60;2.00;;;21.10;99.90;;;;;;5032911;28;20221;-80
2022/01/20 01:37:03;;;;;;;14.15;2.58;;;21.20;99.90;;;;;;5033242;28;20662;-81
2022/01/20 01:39:34;;;;;;;15.15;2.20;;;21.30;99.90;;;;;;5030280;28;20186;-80
2022/01/20 01:42:05;;;;;;;18.98;2.70;;;21.50;99.90;;;;;;5032340;28;20210;-82
2022/01/20 01:44:38;;;;;;;13.07;2.15;;;21.60;99.90;;;;;;5032685;28;20201;-81
2022/01/20 01:47:10;;;;;;;16.08;2.20;;;21.70;99.90;;;;;;5024748;28;20190;-80
2022/01/20 01:49:41;;;;;;;10.40;1.52;;;21.70;99.90;;;;;;5031103;28;20183;-80
2022/01/20 01:52:12;;;;;;;12.00;1.73;;;22.00;99.90;;;;;;5023670;28;20206;-80
2022/01/20 01:54:42;;;;;;;9.68;1.60;;;22.30;99.90;;;;;;5031879;28;20187;-82
2022/01/20 01:57:13;;;;;;;10.43;1.85;;;22.40;99.90;;;;;;5024670;28;20190;-80
2022/01/20 01:59:44;;;;;;;13.85;2.00;;;22.50;99.90;;;;;;5030087;28;20197;-81
2022/01/20 02:02:16;;;;;;;10.95;2.00;;;22.60;99.90;;;;;;5031521;28;20272;-81
2022/01/20 02:04:48;;;;;;;11.82;1.92;;;22.60;99.90;;;;;;5032980;28;20236;-80
2022/01/20 02:07:47;;;;;;;14.10;2.30;;;22.80;99.90;;;;;;5031641;28;20197;-80
2022/01/20 02:18:45;;;;;;;13.23;2.30;;;23.20;99.90;;;;;;5036455;28;20231;-81
2022/01/20 02:21:18;;;;;;;14.95;1.98;;;23.20;99.90;;;;;;5032810;28;20210;-80
2022/01/20 02:23:54;;;;;;;11.48;1.88;;;23.10;99.90;;;;;;5031452;28;20222;-80
2022/01/20 02:26:24;;;;;;;11.07;2.15;;;23.00;99.90;;;;;;5032536;28;20190;-81
2022/01/20 02:28:55;;;;;;;12.45;1.83;;;23.10;99.90;;;;;;5037507;28;20183;-78
2022/01/20 02:31:26;;;;;;;13.38;1.88;;;23.30;99.90;;;;;;5031933;28;20529;-83
2022/01/20 02:33:57;;;;;;;10.52;1.92;;;23.50;99.90;;;;;;5038469;28;20193;-82
2022/01/20 02:36:31;;;;;;;16.63;2.60;;;23.60;99.90;;;;;;5033087;28;20222;-81
2022/01/20 02:39:08;;;;;;;12.23;2.00;;;23.60;99.90;;;;;;5032574;28;20577;-82
2022/01/20 02:44:53;;;;;;;16.23;2.50;;;23.80;99.90;;;;;;5031322;28;20287;-79
2022/01/20 02:47:25;;;;;;;13.00;2.20;;;23.50;99.90;;;;;;5029321;28;20201;-84
2022/01/20 02:49:56;;;;;;;14.95;1.95;;;23.30;99.90;;;;;;5028649;28;20195;-78
2022/01/20 02:52:29;;;;;;;14.25;1.83;;;23.10;99.90;;;;;;5031571;28;20190;-80
2022/01/20 02:54:59;;;;;;;11.45;1.95;;;23.10;99.90;;;;;;5030475;28;20244;-80
2022/01/20 02:57:30;;;;;;;12.13;1.90;;;23.10;99.90;;;;;;5038758;28;20241;-81
2022/01/20 03:00:01;;;;;;;11.57;1.95;;;23.00;99.90;;;;;;5031626;28;20198;-81
2022/01/20 03:02:31;;;;;;;15.07;2.20;;;23.10;99.90;;;;;;5032063;28;20229;-80
2022/01/20 03:05:02;;;;;;;14.85;2.15;;;23.10;99.90;;;;;;5032195;28;20662;-81
2022/01/20 03:07:35;;;;;;;11.20;1.95;;;23.10;99.90;;;;;;5032879;28;20195;-81
2022/01/20 03:10:05;;;;;;;11.30;1.85;;;23.10;99.90;;;;;;5035362;28;20194;-81
2022/01/20 03:12:36;;;;;;;10.10;1.85;;;23.10;99.90;;;;;;5034810;28;20202;-80
2022/01/20 03:15:07;;;;;;;12.02;2.10;;;23.20;99.90;;;;;;5034679;28;20187;-81
2022/01/20 03:17:38;;;;;;;10.63;1.70;;;23.20;99.90;;;;;;5035183;28;20202;-81
2022/01/20 03:20:09;;;;;;;8.10;1.70;;;23.20;99.90;;;;;;5034754;28;20194;-81
2022/01/20 03:22:42;;;;;;;7.63;1.65;;;23.30;99.90;;;;;;5032604;28;20214;-82
2022/01/20 03:25:13;;;;;;;7.95;1.63;;;23.30;99.90;;;;;;5035145;28;20233;-83
2022/01/20 03:27:44;;;;;;;11.55;1.88;;;23.50;99.90;;;;;;5034482;28;20260;-81
2022/01/20 03:30:15;;;;;;;12.75;2.20;;;23.60;99.90;;;;;;5035118;28;20195;-81
2022/01/20 03:32:46;;;;;;;10.07;1.92;;;23.70;99.90;;;;;;5034551;28;20209;-80
2022/01/20 03:35:17;;;;;;;13.65;2.35;;;23.60;99.90;;;;;;5035142;28;20647;-81
2022/01/20 03:37:49;;;;;;;15.70;2.30;;;23.60;99.90;;;;;;5034646;28;20272;-81
2022/01/20 03:40:25;;;;;;;14.20;2.15;;;23.50;99.90;;;;;;5034868;28;20190;-81
2022/01/20 03:42:56;;;;;;;15.50;2.10;;;23.60;99.90;;;;;;5032708;28;20233;-81
2022/01/20 03:45:28;;;;;;;13.95;2.17;;;23.70;99.90;;;;;;5033562;28;20193;-80
2022/01/20 03:48:08;;;;;;;13.05;2.28;;;23.50;99.90;;;;;;5031837;28;20630;-81
2022/01/20 03:53:28;;;;;;;11.48;1.88;;;23.30;99.90;;;;;;5032148;28;20586;-80
2022/01/20 03:56:02;;;;;;;10.63;2.38;;;23.30;99.90;;;;;;5034214;28;20586;-82
2022/01/20 03:58:34;;;;;;;13.75;2.00;;;23.50;99.90;;;;;;5033242;28;20285;-83
2022/01/20 04:01:04;;;;;;;14.10;2.00;;;23.70;99.90;;;;;;5034431;28;20200;-81
2022/01/20 04:03:48;;;;;;;10.20;1.88;;;23.80;99.90;;;;;;5034436;28;20209;-81
2022/01/20 04:06:18;;;;;;;9.48;2.00;;;23.70;99.90;;;;;;5033913;28;20276;-81
2022/01/20 04:08:54;;;;;;;9.65;1.70;;;23.60;99.90;;;;;;5033373;28;20324;-81
2022/01/20 04:11:25;;;;;;;15.07;2.05;;;23.60;99.90;;;;;;5035774;28;20197;-82
2022/01/20 04:13:57;;;;;;;9.07;1.95;;;23.50;99.90;;;;;;5030687;28;20190;-81
2022/01/20 04:16:34;;;;;;;11.30;1.95;;;23.50;99.90;;;;;;5035931;28;20187;-81
2022/01/20 04:19:07;;;;;;;10.93;1.67;;;23.40;99.90;;;;;;5032689;28;20248;-80
2022/01/20 04:21:39;;;;;;;12.60;1.80;;;23.40;99.90;;;;;;5035248;28;20202;-81
2022/01/20 04:24:12;;;;;;;10.25;1.40;;;23.30;99.90;;;;;;5028900;28;20289;-82
2022/01/20 04:26:44;;;;;;;7.38;1.55;;;23.30;99.90;;;;;;5034357;28;20194;-80
2022/01/20 04:29:16;;;;;;;13.57;2.10;;;23.30;99.90;;;;;;5033341;28;20249;-81
2022/01/20 04:31:48;;;;;;;9.50;1.80;;;23.40;99.90;;;;;;5033650;28;20191;-80
2022/01/20 04:34:19;;;;;;;12.93;1.88;;;23.30;99.90;;;;;;5033189;28;20554;-79
2022/01/20 04:36:52;;;;;;;12.07;1.98;;;23.20;99.90;;;;;;5033917;28;20190;-80
2022/01/20 04:39:28;;;;;;;9.27;1.75;;;23.30;99.90;;;;;;5033773;28;20198;-79
2022/01/20 04:41:59;;;;;;;12.65;1.98;;;23.50;99.90;;;;;;5032328;28;20283;-79
2022/01/20 04:44:40;;;;;;;7.20;1.45;;;23.50;99.90;;;;;;5032653;28;20187;-79
2022/01/20 04:47:23;;;;;;;11.93;1.73;;;23.40;99.90;;;;;;5033378;28;20195;-78
2022/01/20 04:58:15;;;;;;;12.02;1.60;;;23.20;99.90;;;;;;5033841;28;20202;-79
2022/01/20 05:00:45;;;;;;;9.20;1.73;;;23.20;99.90;;;;;;5028325;28;20260;-80
2022/01/20 05:03:16;;;;;;;14.55;2.42;;;23.10;99.90;;;;;;5033613;28;20214;-81
2022/01/20 05:05:47;;;;;;;13.65;1.95;;;23.10;99.90;;;;;;5033334;28;20212;-80
2022/01/20 05:08:22;;;;;;;12.15;2.15;;;23.00;99.90;;;;;;5033912;28;20256;-80
2022/01/20 05:11:00;;;;;;;12.63;2.38;;;23.00;99.90;;;;;;5033678;28;20691;-80
2022/01/20 05:13:36;;;;;;;16.90;2.15;;;23.00;99.90;;;;;;5033138;28;20200;-81
2022/01/20 05:16:07;;;;;;;14.88;3.38;;;22.80;99.90;;;;;;5026944;28;20627;-80
2022/01/20 05:18:38;;;;;;;16.60;3.22;;;22.50;99.90;;;;;;5032913;28;20187;-80
2022/01/20 05:21:09;;;;;;;14.50;2.22;;;22.50;99.90;;;;;;5032913;28;20653;-79
2022/01/20 05:23:40;;;;;;;15.50;2.33;;;22.50;99.90;;;;;;5033252;28;20249;-80
2022/01/20 05:26:13;;;;;;;16.30;2.00;;;22.60;99.90;;;;;;5033397;28;20301;-79
2022/01/20 05:28:44;;;;;;;12.10;2.42;;;22.80;99.90;;;;;;5031285;28;20195;-80
2022/01/20 05:31:15;;;;;;;12.40;2.05;;;22.80;99.90;;;;;;5031707;28;20200;-81
2022/01/20 05:33:45;;;;;;;17.10;2.10;;;22.90;99.90;;;;;;5032004;28;20236;-80
2022/01/20 05:36:16;;;;;;;12.48;2.35;;;23.10;99.90;;;;;;5032573;28;20195;-82
2022/01/20 05:38:47;;;;;;;12.10;2.25;;;23.00;99.90;;;;;;5038233;28;20247;-82
2022/01/20 05:41:20;;;;;;;11.23;2.30;;;23.10;99.90;;;;;;5032841;28;20220;-80
2022/01/20 05:43:50;;;;;;;13.10;2.38;;;23.00;99.90;;;;;;5033507;28;20221;-80
2022/01/20 05:46:26;;;;;;;14.90;2.53;;;23.00;99.90;;;;;;5035864;28;20193;-79
2022/01/20 05:49:03;;;;;;;14.80;2.45;;;22.90;99.90;;;;;;5034179;28;20193;-80
2022/01/20 05:51:34;;;;;;;13.32;2.42;;;22.90;99.90;;;;;;5033970;28;20186;-81
2022/01/20 05:54:04;;;;;;;15.57;2.53;;;23.00;99.90;;;;;;5030968;28;20209;-80
2022/01/20 05:56:37;;;;;;;14.88;2.60;;;23.00;99.90;;;;;;5032702;28;20197;-82
2022/01/20 05:59:08;;;;;;;16.50;2.50;;;22.90;99.90;;;;;;5031846;28;20190;-80
2022/01/20 06:01:39;;;;;;;20.45;2.83;;;23.00;99.90;;;;;;5033352;28;20261;-83
2022/01/20 06:04:10;;;;;;;17.15;3.60;;;23.00;99.90;;;;;;5032214;28;20196;-81
2022/01/20 06:06:44;;;;;;;16.20;2.47;;;23.00;99.90;;;;;;5030871;28;20182;-81
2022/01/20 06:09:15;;;;;;;15.75;2.90;;;22.90;99.90;;;;;;5029619;28;20205;-81
2022/01/20 06:11:47;;;;;;;15.02;2.45;;;22.90;99.90;;;;;;5033898;28;21598;-82
2022/01/20 06:14:20;;;;;;;19.27;2.45;;;23.00;99.90;;;;;;5031785;28;20186;-82
2022/01/20 06:16:57;;;;;;;16.92;2.50;;;23.00;99.90;;;;;;5031546;28;20190;-82
2022/01/20 06:19:27;;;;;;;17.92;2.40;;;23.00;99.90;;;;;;5029927;28;20678;-81
2022/01/20 06:21:58;;;;;;;18.05;2.35;;;23.00;99.90;;;;;;5031422;28;20222;-80
2022/01/20 06:24:32;;;;;;;15.75;2.30;;;23.10;99.90;;;;;;5033155;28;20323;-82
2022/01/20 06:27:05;;;;;;;16.58;2.85;;;22.90;99.90;;;;;;5034693;28;20186;-81
2022/01/20 06:29:35;;;;;;;12.98;2.35;;;22.90;99.90;;;;;;5033410;28;20190;-81
2022/01/20 06:32:06;;;;;;;20.75;2.58;;;23.00;99.90;;;;;;5030626;28;20195;-81
2022/01/20 06:34:46;;;;;;;17.05;2.20;;;22.90;99.90;;;;;;5032129;28;20193;-79
2022/01/20 06:37:18;;;;;;;18.77;2.72;;;22.90;99.90;;;;;;5031768;28;20198;-80
2022/01/20 06:39:50;;;;;;;17.65;2.40;;;22.90;99.90;;;;;;5032399;28;20591;-81
2022/01/20 06:42:25;;;;;;;21.17;3.13;;;23.00;99.90;;;;;;5034693;28;20597;-80
2022/01/20 06:44:58;;;;;;;16.65;2.83;;;23.00;99.90;;;;;;5032939;28;20664;-80
2022/01/20 06:47:28;;;;;;;13.32;2.30;;;23.10;99.90;;;;;;5027346;28;20595;-78
2022/01/20 06:49:59;;;;;;;17.15;2.63;;;23.00;99.90;;;;;;5021532;28;20917;-80
2022/01/20 06:52:33;;;;;;;19.00;2.78;;;22.90;99.90;;;;;;5026233;28;20228;-81
2022/01/20 06:55:10;;;;;;;13.65;2.72;;;23.00;99.90;;;;;;5035427;28;20205;-80
2022/01/20 06:57:43;;;;;;;17.52;2.80;;;23.00;99.90;;;;;;5034027;28;20201;-81
2022/01/20 07:00:16;;;;;;;15.75;2.40;;;22.90;99.90;;;;;;5035451;28;20539;-80
2022/01/20 07:02:47;;;;;;;11.07;2.00;;;22.90;99.90;;;;;;5034300;28;20210;-80
2022/01/20 07:05:20;;;;;;;13.57;2.40;;;22.90;99.90;;;;;;5038654;28;20190;-77
2022/01/20 07:07:50;;;;;;;17.40;2.65;;;22.80;99.90;;;;;;5036083;28;20193;-79
2022/01/20 07:10:25;;;;;;;13.13;2.25;;;22.70;99.90;;;;;;5036987;28;20229;-78
2022/01/20 07:13:01;;;;;;;15.35;2.33;;;22.60;99.90;;;;;;5033563;28;20248;-79
2022/01/20 07:15:31;;;;;;;13.57;2.53;;;22.60;99.90;;;;;;5036377;28;20240;-81
2022/01/20 07:18:02;;;;;;;13.50;2.25;;;22.60;99.90;;;;;;5042605;28;20196;-81
2022/01/20 07:20:33;;;;;;;12.85;2.33;;;22.60;99.90;;;;;;5034860;28;20199;-80
2022/01/20 07:23:03;;;;;;;14.10;2.22;;;22.70;99.90;;;;;;5027585;28;20732;-79
2022/01/20 07:25:34;;;;;;;12.10;2.10;;;22.60;99.90;;;;;;5034777;28;20568;-80
2022/01/20 07:28:07;;;;;;;11.02;2.33;;;22.50;99.90;;;;;;5027452;28;20194;-79
2022/01/20 07:30:38;;;;;;;11.82;1.90;;;22.40;99.90;;;;;;5035023;28;20548;-79
2022/01/20 07:33:09;;;;;;;12.98;2.05;;;22.50;99.90;;;;;;5034485;28;20202;-80
2022/01/20 07:35:40;;;;;;;16.92;2.60;;;22.50;99.90;;;;;;5033650;28;20193;-79
2022/01/20 07:38:11;;;;;;;10.77;1.90;;;22.50;99.90;;;;;;5033595;28;20190;-81
2022/01/20 07:40:41;;;;;;;12.55;2.03;;;22.50;99.90;;;;;;5032065;28;20225;-79
2022/01/20 07:43:14;;;;;;;13.88;1.80;;;22.40;99.90;;;;;;5033570;28;20221;-81
2022/01/20 07:45:44;;;;;;;13.20;2.00;;;22.40;99.90;;;;;;5034640;28;20195;-79
2022/01/20 07:48:15;;;;;;;13.65;2.47;;;22.40;99.90;;;;;;5035907;28;20190;-80
2022/01/20 07:50:46;;;;;;;14.07;2.30;;;22.40;99.90;;;;;;5036450;28;20194;-81
2022/01/20 07:53:18;;;;;;;14.13;2.40;;;22.30;99.90;;;;;;5033621;28;20199;-80
2022/01/20 07:55:48;;;;;;;11.48;2.00;;;22.30;99.90;;;;;;5035699;28;20244;-80
2022/01/20 07:58:21;;;;;;;13.82;2.30;;;22.30;99.90;;;;;;5032343;28;20202;-81
2022/01/20 08:00:51;;;;;;;13.38;2.22;;;22.30;99.90;;;;;;5031020;28;20654;-80
2022/01/20 08:03:22;;;;;;;9.30;2.13;;;22.30;99.90;;;;;;5026388;28;20226;-80
2022/01/20 08:05:53;;;;;;;12.57;2.13;;;22.30;99.90;;;;;;5033980;28;20236;-80
2022/01/20 08:08:24;;;;;;;10.70;2.00;;;22.40;99.90;;;;;;5032271;28;20190;-80
2022/01/20 08:10:55;;;;;;;17.65;2.58;;;22.40;99.90;;;;;;5029842;28;20564;-81
2022/01/20 08:13:27;;;;;;;13.25;2.38;;;22.40;99.90;;;;;;5034203;28;20194;-80
2022/01/20 08:15:58;;;;;;;14.27;2.38;;;22.30;99.90;;;;;;5036167;28;20189;-81
2022/01/20 08:18:29;;;;;;;13.90;2.13;;;22.20;99.90;;;;;;5027514;28;20187;-81
2022/01/20 08:20:59;;;;;;;11.85;2.10;;;22.10;99.90;;;;;;5034783;28;20190;-80
2022/01/20 08:23:30;;;;;;;12.18;2.50;;;22.10;99.90;;;;;;5033784;28;20213;-80
2022/01/20 08:26:02;;;;;;;12.35;2.00;;;22.10;99.90;;;;;;5034185;28;20545;-78
2022/01/20 08:28:34;;;;;;;15.50;2.60;;;22.00;99.90;;;;;;5031185;28;20821;-80
2022/01/20 08:31:06;;;;;;;10.30;2.03;;;22.00;99.90;;;;;;5038330;28;20193;-80
2022/01/20 08:33:39;;;;;;;12.50;1.95;;;22.00;99.90;;;;;;5032013;28;20285;-82
2022/01/20 08:36:10;;;;;;;15.50;2.30;;;22.00;99.90;;;;;;5036670;28;20688;-82
2022/01/20 08:38:41;;;;;;;16.38;2.58;;;21.90;99.90;;;;;;5035451;28;20197;-80
2022/01/20 08:41:11;;;;;;;18.15;2.90;;;21.90;99.90;;;;;;5034227;28;20275;-81
2022/01/20 08:43:55;;;;;;;16.67;2.90;;;21.90;99.90;;;;;;5036945;28;20210;-81
2022/01/20 08:46:31;;;;;;;19.77;3.08;;;21.80;99.90;;;;;;5034422;28;20661;-81
2022/01/20 08:49:08;;;;;;;17.00;2.97;;;21.80;99.90;;;;;;5033702;28;20204;-81
2022/01/20 08:51:42;;;;;;;19.92;3.25;;;21.80;99.90;;;;;;5032786;28;20190;-83
2022/01/20 08:54:18;;;;;;;21.30;3.08;;;21.70;99.90;;;;;;5032732;28;20247;-81
2022/01/20 08:56:53;;;;;;;17.00;2.75;;;21.60;99.90;;;;;;5033896;28;20218;-80
2022/01/20 08:59:28;;;;;;;17.05;2.80;;;21.60;99.90;;;;;;5033074;28;20202;-81
2022/01/20 09:01:58;;;;;;;11.88;2.42;;;21.50;99.90;;;;;;5035337;28;20659;-82
2022/01/20 09:04:30;;;;;;;16.67;2.58;;;21.50;99.90;;;;;;5031090;28;20818;-80
2022/01/20 09:07:00;;;;;;;17.13;2.92;;;21.50;99.90;;;;;;5030491;28;20213;-80
2022/01/20 09:09:33;;;;;;;17.58;2.75;;;21.40;99.90;;;;;;5040505;28;20189;-80
2022/01/20 09:15:27;;;;;;;18.52;2.47;;;21.40;99.90;;;;;;5033012;28;20200;-81
2022/01/20 09:15:30;;;;;;;14.88;2.45;;;21.40;99.90;;;;;;5031679;28;20186;-80
2022/01/20 09:18:02;;;;;;;16.58;2.60;;;21.30;99.90;;;;;;5032286;28;20202;-80
2022/01/20 09:20:37;;;;;;;18.45;2.58;;;21.30;99.90;;;;;;5032740;28;20193;-81
2022/01/20 09:23:09;;;;;;;16.35;2.80;;;21.30;99.90;;;;;;5033402;28;20208;-80
2022/01/20 09:25:42;;;;;;;17.58;2.83;;;21.20;99.90;;;;;;5033129;28;20257;-79
2022/01/20 09:28:12;;;;;;;19.23;2.58;;;21.20;99.90;;;;;;5034074;28;20194;-80
2022/01/20 09:30:46;;;;;;;16.23;2.65;;;21.20;99.90;;;;;;5036152;28;20182;-80
2022/01/20 09:33:26;;;;;;;16.63;2.92;;;21.20;99.90;;;;;;5033865;28;20187;-79
2022/01/20 09:36:01;;;;;;;13.60;2.33;;;21.10;99.90;;;;;;5031170;28;20739;-80
2022/01/20 09:38:35;;;;;;;20.38;3.15;;;21.10;99.90;;;;;;5033385;28;20190;-81
2022/01/20 09:41:06;;;;;;;17.52;3.17;;;21.20;99.90;;;;;;5025740;28;20276;-80
2022/01/20 09:43:47;;;;;;;21.08;2.83;;;21.10;99.90;;;;;;5036354;28;20221;-81
2022/01/20 09:46:20;;;;;;;16.77;2.58;;;21.10;99.90;;;;;;5026293;28;21023;-80
2022/01/20 09:48:51;;;;;;;15.20;2.80;;;21.20;99.90;;;;;;5032106;28;20194;-80
2022/01/20 09:51:24;;;;;;;15.57;2.75;;;21.10;99.90;;;;;;5031910;28;20187;-79
2022/01/20 09:53:58;;;;;;;18.05;2.85;;;21.10;99.90;;;;;;5031724;28;20214;-80
2022/01/20 09:56:31;;;;;;;18.85;3.08;;;21.10;99.90;;;;;;5032680;28;20186;-79
2022/01/20 09:59:07;;;;;;;19.52;3.08;;;21.20;99.90;;;;;;5035908;28;20185;-80
2022/01/20 10:01:42;;;;;;;17.02;3.72;;;21.20;99.90;;;;;;5032416;28;20205;-79
2022/01/20 10:04:23;;;;;;;20.38;3.10;;;21.20;99.90;;;;;;5036471;28;20229;-81
2022/01/20 10:06:59;;;;;;;18.50;2.90;;;21.20;99.90;;;;;;5028970;28;20210;-81
2022/01/20 10:09:34;;;;;;;18.48;2.60;;;21.20;99.90;;;;;;5031789;28;20190;-81
2022/01/20 10:12:05;;;;;;;20.77;3.15;;;21.20;99.90;;;;;;5026537;28;20655;-82
2022/01/20 10:14:43;;;;;;;17.95;2.83;;;21.20;99.90;;;;;;5037135;28;20207;-82
2022/01/20 10:17:31;;;;;;;22.75;3.00;;;21.20;99.90;;;;;;5032361;28;20194;-80
2022/01/20 10:20:03;;;;;;;16.40;2.58;;;21.20;99.90;;;;;;5030315;28;20209;-80
2022/01/20 10:22:37;;;;;;;16.17;2.83;;;21.20;99.90;;;;;;5032601;28;20670;-82
2022/01/20 10:25:11;;;;;;;19.48;3.05;;;21.20;99.90;;;;;;5031500;28;20238;-82
2022/01/20 10:27:50;;;;;;;20.77;2.75;;;21.20;99.90;;;;;;5030494;28;20247;-81
2022/01/20 10:30:21;;;;;;;20.30;2.90;;;21.20;99.90;;;;;;5032644;28;20650;-80
2022/01/20 10:32:54;;;;;;;18.65;3.08;;;21.10;99.90;;;;;;5032063;28;20195;-80
2022/01/20 10:35:31;;;;;;;19.35;2.85;;;21.10;99.90;;;;;;5035467;28;20630;-79
2022/01/20 10:38:11;;;;;;;19.95;2.67;;;21.00;99.90;;;;;;5029559;28;20186;-81
2022/01/20 10:40:56;;;;;;;20.85;2.83;;;21.00;99.90;;;;;;5032192;28;20585;-81
2022/01/20 10:43:28;;;;;;;18.83;2.92;;;21.00;99.90;;;;;;5030863;28;20396;-81
2022/01/20 10:46:07;;;;;;;13.57;3.00;;;21.00;99.90;;;;;;5034086;28;20603;-80
2022/01/20 10:48:40;;;;;;;19.73;3.03;;;21.00;99.90;;;;;;5026791;28;20201;-79
2022/01/20 10:51:19;;;;;;;19.70;2.95;;;21.00;99.90;;;;;;5031047;28;20194;-80
2022/01/20 10:54:01;;;;;;;18.25;2.92;;;21.00;99.90;;;;;;5031989;28;20187;-79
2022/01/20 10:56:31;;;;;;;19.95;2.90;;;21.00;99.90;;;;;;5031559;28;20187;-80
2022/01/20 10:59:10;;;;;;;22.27;3.33;;;21.00;99.90;;;;;;5032032;28;20186;-80
2022/01/20 11:01:41;;;;;;;19.38;3.35;;;21.00;99.90;;;;;;5030921;28;20181;-81
2022/01/20 11:04:13;;;;;;;17.50;3.03;;;21.00;99.90;;;;;;5033433;28;20225;-79
2022/01/20 11:06:44;;;;;;;18.70;2.65;;;21.00;99.90;;;;;;5031031;28;20182;-79
2022/01/20 11:09:19;;;;;;;19.00;2.55;;;21.00;99.90;;;;;;5032364;28;20190;-80
2022/01/20 11:11:51;;;;;;;19.83;3.05;;;21.00;99.90;;;;;;5026663;28;20593;-80
2022/01/20 11:14:21;;;;;;;17.73;2.60;;;21.00;99.90;;;;;;5031557;28;20186;-81
2022/01/20 11:16:52;;;;;;;17.55;2.72;;;21.00;99.90;;;;;;5029974;28;20190;-78
2022/01/20 11:19:25;;;;;;;22.77;3.70;;;21.00;99.90;;;;;;5033442;28;20201;-79
2022/01/20 11:22:08;;;;;;;15.80;2.85;;;20.90;99.90;;;;;;5031625;28;20269;-78
2022/01/20 11:24:40;;;;;;;16.17;2.38;;;20.90;99.90;;;;;;5031738;28;20229;-82
2022/01/20 11:27:12;;;;;;;14.50;2.30;;;20.90;99.90;;;;;;5033499;28;20206;-80
2022/01/20 11:29:46;;;;;;;12.95;2.45;;;20.90;99.90;;;;;;5027057;28;20190;-79
2022/01/20 11:32:25;;;;;;;16.77;2.70;;;20.80;99.90;;;;;;5040577;28;20201;-79
2022/01/20 11:35:05;;;;;;;25.13;3.17;;;20.70;99.90;;;;;;5028410;28;20190;-79
2022/01/20 11:37:39;;;;;;;15.80;2.58;;;20.60;99.90;;;;;;5033891;28;20248;-79
2022/01/20 11:40:18;;;;;;;14.15;2.30;;;20.60;99.90;;;;;;5034909;28;20693;-79
2022/01/20 11:43:03;;;;;;;20.90;2.80;;;20.50;99.90;;;;;;5034650;28;20267;-80
2022/01/20 11:45:35;;;;;;;13.02;2.35;;;20.40;99.90;;;;;;5033425;28;20216;-80
2022/01/20 11:48:18;;;;;;;11.90;2.03;;;20.40;99.90;;;;;;5029437;28;20690;-79
2022/01/20 11:51:02;;;;;;;15.73;2.67;;;20.30;99.90;;;;;;5032678;28;20194;-79
2022/01/20 11:53:33;;;;;;;22.75;3.20;;;20.20;99.90;;;;;;5033847;28;20197;-80
2022/01/20 11:56:03;;;;;;;16.73;2.35;;;20.20;99.90;;;;;;5035654;28;20186;-80
2022/01/20 11:58:34;;;;;;;14.35;2.60;;;20.20;99.90;;;;;;5033942;28;20190;-80
2022/01/20 12:01:07;;;;;;;19.38;2.40;;;20.10;99.90;;;;;;5028597;28;20560;-80
2022/01/20 12:03:39;;;;;;;17.73;2.58;;;20.20;99.90;;;;;;5034498;28;20217;-81
2022/01/20 12:06:14;;;;;;;14.88;2.42;;;20.20;99.90;;;;;;5033986;28;20194;-81
2022/01/20 12:08:57;;;;;;;13.63;2.30;;;20.20;99.90;;;;;;5034374;28;20265;-81
2022/01/20 12:11:39;;;;;;;14.65;2.35;;;20.20;99.90;;;;;;5034665;28;20202;-81
2022/01/20 12:14:10;;;;;;;14.15;2.90;;;20.20;99.90;;;;;;5032816;28;20198;-81
2022/01/20 12:16:42;;;;;;;16.40;2.50;;;20.20;99.90;;;;;;5034493;28;20194;-82
2022/01/20 12:19:14;;;;;;;18.65;2.70;;;20.20;99.90;;;;;;5035182;28;20197;-82
2022/01/20 12:21:51;;;;;;;15.13;2.45;;;20.20;99.90;;;;;;5036041;28;20194;-81
2022/01/20 12:24:22;;;;;;;16.85;2.85;;;20.20;99.90;;;;;;5034142;28;20225;-81
2022/01/20 12:26:53;;;;;;;18.38;2.88;;;20.30;99.90;;;;;;5034109;28;20226;-80
2022/01/20 12:29:23;;;;;;;16.90;2.45;;;20.30;99.90;;;;;;5037349;28;20198;-80
2022/01/20 12:31:57;;;;;;;14.88;2.30;;;20.40;99.90;;;;;;5034351;28;20194;-81
2022/01/20 12:34:27;;;;;;;17.00;2.55;;;20.50;99.90;;;;;;5034339;28;20202;-82
2022/01/20 12:37:01;;;;;;;18.10;2.70;;;20.50;99.90;;;;;;5033997;28;20244;-81
2022/01/20 12:39:33;;;;;;;12.48;2.08;;;20.50;99.90;;;;;;5033362;28;20236;-80
2022/01/20 12:42:06;;;;;;;16.13;2.22;;;20.60;99.90;;;;;;5026605;28;20617;-81
2022/01/20 12:44:50;;;;;;;20.63;3.00;;;20.60;99.90;;;;;;5036403;28;20635;-81
2022/01/20 12:47:29;;;;;;;14.48;2.95;;;20.60;99.90;;;;;;5038005;28;20244;-80
2022/01/20 12:50:02;;;;;;;16.92;2.55;;;20.60;99.90;;;;;;5038709;28;20206;-81
2022/01/20 12:52:35;;;;;;;16.52;2.60;;;20.60;99.90;;;;;;5034324;28;20725;-81
2022/01/20 12:55:07;;;;;;;16.00;2.45;;;20.60;99.90;;;;;;5031244;28;20198;-81
2022/01/20 12:57:38;;;;;;;18.08;2.60;;;20.70;99.90;;;;;;5033261;28;20665;-81
2022/01/20 13:00:12;;;;;;;17.25;2.22;;;20.70;99.90;;;;;;5033593;28;20193;-81
2022/01/20 13:02:42;;;;;;;13.95;2.35;;;20.70;99.90;;;;;;5032967;28;20197;-82
2022/01/20 13:05:16;;;;;;;16.40;2.53;;;20.70;99.90;;;;;;5033409;28;20214;-80
2022/01/20 13:07:55;;;;;;;15.73;3.10;;;20.70;99.90;;;;;;5033436;28;20278;-80
2022/01/20 13:10:32;;;;;;;16.02;2.92;;;20.70;99.90;;;;;;5033755;28;20274;-80
2022/01/20 13:13:05;;;;;;;21.33;2.60;;;20.80;99.90;;;;;;5033279;28;20640;-80
2022/01/20 13:15:36;;;;;;;20.48;3.10;;;20.80;99.90;;;;;;5028848;28;20199;-80
2022/01/20 13:18:08;;;;;;;17.00;2.60;;;20.80;99.90;;;;;;5033239;28;20201;-81
2022/01/20 13:20:41;;;;;;;18.20;3.00;;;20.70;99.90;;;;;;5035055;28;20187;-81
2022/01/20 13:26:06;;;;;;;16.15;2.80;;;20.60;99.90;;;;;;5032638;28;20230;-81
2022/01/20 13:28:39;;;;;;;21.52;2.92;;;20.50;99.90;;;;;;5033246;28;20190;-80
2022/01/20 13:31:20;;;;;;;17.13;2.65;;;20.50;99.90;;;;;;5032589;28;20898;-80
2022/01/20 13:33:51;;;;;;;16.75;2.83;;;20.50;99.90;;;;;;5032714;28;20194;-81
2022/01/20 13:36:22;;;;;;;18.02;2.70;;;20.40;99.90;;;;;;5039799;28;20609;-80
2022/01/20 13:39:00;;;;;;;16.58;2.60;;;20.40;99.90;;;;;;5032674;28;20194;-80
2022/01/20 13:41:32;;;;;;;16.35;2.70;;;20.40;99.90;;;;;;5026815;28;20217;-81
2022/01/20 13:47:02;;;;;;;13.57;2.30;;;20.40;99.90;;;;;;5033359;28;20240;-80
2022/01/20 13:49:33;;;;;;;15.75;2.83;;;20.40;99.90;;;;;;5025778;28;20191;-80
2022/01/20 13:52:06;;;;;;;16.70;2.72;;;20.30;99.90;;;;;;5030430;28;20234;-81
2022/01/20 13:54:45;;;;;;;19.73;2.85;;;20.30;99.90;;;;;;5032941;28;20249;-80
2022/01/20 13:57:16;;;;;;;22.98;3.25;;;20.40;99.90;;;;;;5031677;28;20640;-81
2022/01/20 13:59:54;;;;;;;18.70;3.03;;;20.40;99.90;;;;;;5031785;28;20240;-81
2022/01/20 14:02:26;;;;;;;20.58;3.10;;;20.40;99.90;;;;;;5031523;28;20534;-81
2022/01/20 14:04:57;;;;;;;21.88;3.10;;;20.40;99.90;;;;;;5035000;28;20670;-80